createdAt,value
2022-11-21T00:00:15.640Z,0
2022-11-21T00:05:18.587Z,0
2022-11-21T00:10:18.637Z,0
2022-11-21T00:15:19.701Z,0
2022-11-21T00:20:15.670Z,0
2022-11-21T00:25:18.637Z,0
2022-11-21T00:30:18.608Z,0
2022-11-21T00:35:18.635Z,0
2022-11-21T00:40:15.635Z,0
2022-11-21T00:45:24.157Z,0
2022-11-21T00:50:19.652Z,0
2022-11-21T00:55:15.649Z,0
2022-11-21T01:00:18.622Z,0
2022-11-21T01:05:18.659Z,0
2022-11-21T01:10:18.647Z,0
2022-11-21T01:15:18.663Z,0
2022-11-21T01:20:18.618Z,0
2022-11-21T01:25:16.815Z,0
2022-11-21T01:30:15.687Z,0
2022-11-21T01:35:18.697Z,0
2022-11-21T01:40:15.699Z,0
2022-11-21T01:45:18.647Z,0
2022-11-21T01:50:31.801Z,0
2022-11-21T01:55:19.665Z,0
2022-11-21T02:00:18.672Z,0
2022-11-21T02:05:18.696Z,0
2022-11-21T02:10:18.621Z,0
2022-11-21T02:15:18.700Z,0
2022-11-21T02:20:18.664Z,0
2022-11-21T02:25:18.624Z,0
2022-11-21T02:30:16.404Z,0
2022-11-21T02:35:18.674Z,0
2022-11-21T02:40:18.705Z,0
2022-11-21T02:45:18.673Z,0
2022-11-21T02:50:18.659Z,0
2022-11-21T02:55:15.748Z,0
2022-11-21T03:00:19.688Z,0
2022-11-21T03:05:18.697Z,0
2022-11-21T03:10:18.701Z,0
2022-11-21T03:15:18.709Z,0
2022-11-21T03:20:15.714Z,0
2022-11-21T03:25:18.704Z,0
2022-11-21T03:30:18.727Z,0
2022-11-21T03:35:19.637Z,0
2022-11-21T03:40:18.725Z,0
2022-11-21T03:45:18.880Z,0
2022-11-21T03:50:18.840Z,0
2022-11-21T03:55:18.826Z,0
2022-11-21T04:00:18.695Z,0
2022-11-21T04:05:18.734Z,0
2022-11-21T04:10:19.637Z,0
2022-11-21T04:15:15.768Z,0
2022-11-21T04:20:18.727Z,0
2022-11-21T04:25:15.772Z,0
2022-11-21T04:30:18.750Z,0
2022-11-21T04:35:15.743Z,0
2022-11-21T04:40:18.735Z,0
2022-11-21T04:45:16.657Z,0
2022-11-21T04:50:18.766Z,0
2022-11-21T04:55:15.731Z,0
2022-11-21T05:00:24.258Z,0
2022-11-21T05:05:20.012Z,0
2022-11-21T05:10:16.982Z,0
2022-11-21T05:15:23.196Z,0
2022-11-21T05:20:17.008Z,0
2022-11-21T05:25:20.003Z,0
2022-11-21T05:30:17.040Z,0
2022-11-21T05:35:20.038Z,0
2022-11-21T05:40:20.032Z,0
2022-11-21T05:45:20.974Z,0
2022-11-21T05:50:20.019Z,0
2022-11-21T05:55:17.024Z,0
2022-11-21T06:00:20.046Z,0
2022-11-21T06:05:16.892Z,0
2022-11-21T06:10:16.860Z,0
2022-11-21T06:15:20.094Z,0
2022-11-21T09:55:17.010Z,0
2022-11-21T10:00:20.282Z,0
2022-11-21T10:05:20.178Z,0
2022-11-21T10:10:20.295Z,0
2022-11-21T10:15:18.141Z,0
2022-11-21T10:20:17.220Z,0
2022-11-21T10:25:25.447Z,0
2022-11-21T10:30:17.041Z,0
2022-11-21T10:35:16.993Z,0
2022-11-21T10:40:17.227Z,0
2022-11-21T10:45:17.285Z,0
2022-11-21T10:50:18.385Z,0
2022-11-21T10:55:20.199Z,0
2022-11-21T11:00:20.213Z,0
2022-11-21T11:05:20.191Z,0
2022-11-21T11:10:22.935Z,0
2022-11-21T11:15:20.173Z,0
2022-11-21T11:20:17.253Z,0
2022-11-21T11:25:18.122Z,0
2022-11-21T11:30:20.226Z,0
2022-11-21T11:35:20.211Z,0
2022-11-21T11:40:20.198Z,0
2022-11-21T11:45:20.209Z,0
2022-11-21T11:50:17.300Z,0
2022-11-21T11:55:17.052Z,0
2022-11-21T12:00:18.273Z,12
2022-11-21T12:05:20.281Z,9
2022-11-21T12:10:20.255Z,12
2022-11-21T12:15:20.265Z,17
2022-11-21T12:20:20.231Z,19
2022-11-21T12:25:20.224Z,20
2022-11-21T12:30:21.051Z,22
2022-11-21T12:35:20.228Z,25
2022-11-21T12:40:17.335Z,26
2022-11-21T12:45:17.271Z,28
2022-11-21T12:50:20.268Z,30
2022-11-21T12:55:20.236Z,33
2022-11-21T13:00:20.272Z,35
2022-11-21T13:05:21.258Z,38
2022-11-21T13:10:20.265Z,40
2022-11-21T13:15:17.127Z,41
2022-11-21T13:20:20.299Z,43
2022-11-21T13:25:20.304Z,46
2022-11-21T13:30:20.286Z,48
2022-11-21T13:35:17.292Z,49
2022-11-21T13:40:18.313Z,49
2022-11-21T13:45:17.329Z,51
2022-11-21T13:50:20.342Z,51
2022-11-21T13:55:17.144Z,52
2022-11-21T14:00:20.585Z,53
2022-11-21T14:05:20.289Z,92
2022-11-21T14:10:21.236Z,282
2022-11-21T14:15:20.288Z,304
2022-11-21T14:20:17.373Z,315
2022-11-21T14:25:17.298Z,327
2022-11-21T14:30:17.387Z,339
2022-11-21T14:35:17.399Z,348
2022-11-21T14:40:20.335Z,358
2022-11-21T14:45:21.259Z,367
2022-11-21T14:50:20.338Z,374
2022-11-21T14:55:30.213Z,383
2022-11-21T15:01:00.244Z,390
2022-11-21T15:05:29.226Z,398
2022-11-21T15:11:23.743Z,410
2022-11-21T15:15:18.330Z,416
2022-11-21T15:20:19.277Z,424
2022-11-21T15:25:18.338Z,429
2022-11-21T15:30:18.344Z,434
2022-11-21T15:35:18.335Z,439
2022-11-21T15:40:20.364Z,435
2022-11-21T15:45:20.368Z,434
2022-11-21T15:50:15.449Z,454
2022-11-21T15:55:16.319Z,412
2022-11-21T15:57:15.678Z,410
2022-11-21T16:00:15.406Z,375
2022-11-21T16:05:18.396Z,431
2022-11-21T16:10:26.218Z,385
2022-11-21T16:15:18.380Z,419
2022-11-21T16:20:18.337Z,381
2022-11-21T16:25:15.428Z,357
2022-11-21T16:30:19.404Z,343
2022-11-21T16:35:18.376Z,443
2022-11-21T16:40:18.426Z,371
2022-11-21T16:45:18.415Z,224
2022-11-21T16:50:18.417Z,327
2022-11-21T16:55:18.346Z,355
2022-11-21T17:00:18.429Z,235
2022-11-21T17:05:19.391Z,91
2022-11-21T17:10:18.381Z,152
2022-11-21T17:15:18.369Z,171
2022-11-21T17:20:18.408Z,143
2022-11-21T17:25:18.441Z,50
2022-11-21T17:30:18.387Z,217
2022-11-21T17:35:15.428Z,191
2022-11-21T17:40:19.392Z,70
2022-11-21T17:45:18.390Z,345
2022-11-21T17:50:15.484Z,262
2022-11-21T17:55:18.470Z,184
2022-11-21T18:00:18.455Z,197
2022-11-21T18:05:18.448Z,275
2022-11-21T18:10:41.558Z,323
2022-11-21T18:15:16.269Z,70
2022-11-21T18:20:18.448Z,159
2022-11-21T18:25:18.437Z,134
2022-11-21T18:30:15.448Z,122
2022-11-21T18:35:18.505Z,96
2022-11-21T18:40:18.452Z,76
2022-11-21T18:45:19.294Z,75
2022-11-21T18:50:15.469Z,116
2022-11-21T18:55:18.514Z,90
2022-11-21T19:00:18.479Z,47
2022-11-21T19:05:20.599Z,68
2022-11-21T19:10:41.277Z,59
2022-11-21T19:15:15.513Z,119
2022-11-21T19:20:19.488Z,72
2022-11-21T19:25:18.439Z,44
2022-11-21T19:30:15.544Z,71
2022-11-21T19:35:15.561Z,75
2022-11-21T19:40:18.516Z,46
2022-11-21T19:45:18.532Z,30
2022-11-21T19:50:18.518Z,25
2022-11-21T19:55:16.448Z,33
2022-11-21T20:00:15.522Z,42
2022-11-21T20:05:18.547Z,62
2022-11-21T20:10:18.514Z,59
2022-11-21T20:15:18.512Z,57
2022-11-21T20:20:15.544Z,33
2022-11-21T20:25:15.557Z,76
2022-11-21T20:30:19.491Z,61
2022-11-21T20:35:18.521Z,47
2022-11-21T20:40:18.564Z,65
2022-11-21T20:46:26.473Z,50
2022-11-21T20:50:31.645Z,49
2022-11-21T20:55:18.566Z,45
2022-11-21T21:00:18.546Z,13
2022-11-21T21:05:19.517Z,8
2022-11-21T21:10:18.524Z,5
2022-11-21T21:15:15.600Z,0
2022-11-21T21:20:18.557Z,0
2022-11-21T21:25:18.560Z,0
2022-11-21T21:30:18.561Z,0
2022-11-21T21:35:15.562Z,0
2022-11-21T21:40:19.487Z,0
2022-11-21T21:45:15.579Z,0
2022-11-21T21:50:16.107Z,0
2022-11-21T21:55:18.591Z,0
2022-11-21T22:00:18.590Z,0
2022-11-21T22:05:18.561Z,0
2022-11-21T22:10:18.550Z,0
2022-11-21T22:15:19.549Z,0
2022-11-21T22:20:15.639Z,0
2022-11-21T22:25:15.581Z,0
2022-11-21T22:30:18.605Z,0
2022-11-21T22:35:18.643Z,0
2022-11-21T22:40:18.558Z,0
2022-11-21T22:45:18.586Z,0
2022-11-21T22:50:16.462Z,0
2022-11-21T22:55:18.607Z,0
2022-11-21T23:00:15.620Z,0
2022-11-21T23:05:18.740Z,0
2022-11-21T23:10:18.590Z,0
2022-11-21T23:15:18.590Z,0
2022-11-21T23:20:19.473Z,0
2022-11-21T23:25:18.564Z,0
2022-11-21T23:30:15.619Z,0
2022-11-21T23:35:18.601Z,0
2022-11-21T23:40:15.666Z,0
2022-11-21T23:45:18.628Z,0
2022-11-21T23:50:18.605Z,0
2022-11-21T23:55:19.664Z,0
